createdAt,value
2022-08-03T00:03:33.984Z,21.75
2022-08-03T00:06:04.841Z,21.77
2022-08-03T00:08:32.204Z,21.68
2022-08-03T00:11:04.719Z,21.68
2022-08-03T00:13:31.769Z,21.65
2022-08-03T00:15:58.908Z,21.63
2022-08-03T00:18:25.920Z,21.70
2022-08-03T00:20:52.857Z,21.70
2022-08-03T00:23:19.749Z,21.66
2022-08-03T00:25:46.712Z,21.66
2022-08-03T00:28:13.594Z,21.63
2022-08-03T00:30:42.350Z,21.65
2022-08-03T00:33:11.826Z,21.61
2022-08-03T00:35:50.601Z,21.60
2022-08-03T00:38:18.956Z,21.54
2022-08-03T00:40:46.609Z,21.48
2022-08-03T00:43:13.866Z,21.47
2022-08-03T00:45:43.757Z,21.42
2022-08-03T00:48:29.684Z,21.44
2022-08-03T00:51:00.234Z,21.34
2022-08-03T00:53:27.959Z,21.27
2022-08-03T00:55:55.229Z,21.33
2022-08-03T00:58:22.638Z,21.28
2022-08-03T01:00:49.942Z,21.26
2022-08-03T01:03:17.314Z,21.27
2022-08-03T01:06:00.815Z,21.23
2022-08-03T01:08:46.883Z,21.17
2022-08-03T01:12:00.534Z,20.90
2022-08-03T01:14:39.353Z,21.05
2022-08-03T01:17:22.414Z,21.07
2022-08-03T01:20:10.783Z,21.06
2022-08-03T01:22:58.915Z,21.03
2022-08-03T01:25:54.488Z,21.02
2022-08-03T01:28:50.809Z,20.96
2022-08-03T01:31:24.127Z,21.08
2022-08-03T01:33:57.652Z,21.07
2022-08-03T01:36:30.013Z,21.04
2022-08-03T01:39:02.875Z,21.01
2022-08-03T01:41:35.086Z,20.98
2022-08-03T01:44:30.209Z,21.07
2022-08-03T01:46:54.747Z,21.03
2022-08-03T01:49:22.391Z,20.99
2022-08-03T01:52:03.197Z,20.98
2022-08-03T01:54:36.489Z,20.90
2022-08-03T01:57:04.948Z,20.84
2022-08-03T01:59:35.857Z,20.73
2022-08-03T02:02:28.327Z,20.72
2022-08-03T02:04:55.977Z,20.70
2022-08-03T02:07:24.230Z,20.70
2022-08-03T02:09:52.948Z,20.65
2022-08-03T02:12:22.639Z,20.75
2022-08-03T02:14:52.010Z,20.73
2022-08-03T02:17:39.319Z,20.76
2022-08-03T02:20:09.196Z,20.76
2022-08-03T02:22:39.502Z,20.70
2022-08-03T02:25:08.817Z,20.62
2022-08-03T02:27:43.203Z,20.56
2022-08-03T02:30:12.916Z,20.47
2022-08-03T02:32:44.403Z,20.46
2022-08-03T02:35:15.403Z,20.51
2022-08-03T02:37:49.707Z,20.49
2022-08-03T02:40:19.472Z,20.49
2022-08-03T02:42:50.176Z,20.55
2022-08-03T02:45:20.075Z,20.53
2022-08-03T02:47:54.495Z,20.63
2022-08-03T02:50:24.206Z,20.69
2022-08-03T02:52:53.444Z,20.71
2022-08-03T02:55:22.781Z,20.70
2022-08-03T02:57:51.257Z,20.69
2022-08-03T03:00:27.484Z,20.72
2022-08-03T03:03:02.073Z,20.66
2022-08-03T03:05:55.790Z,20.62
2022-08-03T03:08:26.741Z,20.61
2022-08-03T03:11:01.824Z,20.51
2022-08-03T03:13:30.593Z,20.37
2022-08-03T03:16:04.151Z,20.45
2022-08-03T03:18:35.253Z,20.34
2022-08-03T03:21:04.194Z,20.45
2022-08-03T03:23:35.764Z,20.27
2022-08-03T03:26:03.303Z,20.36
2022-08-03T03:28:31.995Z,20.34
2022-08-03T03:30:59.742Z,20.39
2022-08-03T03:33:28.533Z,20.31
2022-08-03T03:36:08.202Z,20.33
2022-08-03T03:38:35.592Z,20.33
2022-08-03T03:41:02.914Z,20.42
2022-08-03T03:43:30.169Z,20.51
2022-08-03T03:45:58.462Z,20.51
2022-08-03T03:48:26.515Z,20.57
2022-08-03T03:50:53.663Z,20.58
2022-08-03T03:53:20.729Z,20.63
2022-08-03T03:55:59.305Z,20.70
2022-08-03T03:58:30.973Z,20.83
2022-08-03T04:00:58.173Z,21.04
2022-08-03T04:03:25.292Z,21.08
2022-08-03T04:06:10.864Z,21.21
2022-08-03T04:08:56.454Z,21.32
2022-08-03T04:11:29.078Z,21.51
2022-08-03T04:14:02.330Z,21.65
2022-08-03T04:16:34.014Z,21.68
2022-08-03T04:19:14.206Z,21.91
2022-08-03T04:21:43.694Z,22.13
2022-08-03T04:24:12.918Z,22.27
2022-08-03T04:26:43.512Z,22.53
2022-08-03T04:29:12.144Z,22.65
2022-08-03T04:31:42.225Z,22.76
2022-08-03T04:34:09.543Z,22.88
2022-08-03T04:36:40.533Z,22.92
2022-08-03T04:39:14.362Z,23.05
2022-08-03T04:42:08.364Z,23.23
2022-08-03T04:44:38.147Z,23.58
2022-08-03T04:47:05.283Z,23.78
2022-08-03T04:49:32.921Z,23.93
2022-08-03T04:52:00.235Z,24.12
2022-08-03T04:54:27.225Z,24.11
2022-08-03T04:56:54.205Z,24.28
2022-08-03T04:59:21.186Z,24.38
2022-08-03T05:01:48.203Z,24.47
2022-08-03T05:04:15.454Z,24.79
2022-08-03T05:06:48.165Z,24.78
2022-08-03T05:09:49.915Z,24.85
2022-08-03T05:12:11.346Z,24.94
2022-08-03T05:14:39.067Z,25.26
2022-08-03T05:17:06.594Z,25.45
2022-08-03T05:19:33.521Z,25.68
2022-08-03T05:22:00.786Z,25.99
2022-08-03T05:24:27.889Z,26.18
2022-08-03T05:26:54.887Z,26.55
2022-08-03T05:29:22.250Z,26.85
2022-08-03T05:31:49.345Z,27.06
2022-08-03T05:34:16.597Z,27.23
2022-08-03T05:36:43.554Z,27.32
2022-08-03T05:39:10.565Z,27.67
2022-08-03T05:41:37.692Z,27.66
2022-08-03T05:44:05.226Z,27.77
2022-08-03T05:46:32.616Z,28.02
2022-08-03T05:48:59.679Z,28.24
2022-08-03T05:51:26.769Z,28.43
2022-08-03T05:53:53.787Z,28.68
2022-08-03T05:56:27.717Z,28.61
2022-08-03T05:58:54.877Z,28.92
2022-08-03T06:01:22.636Z,29.16
2022-08-03T06:03:52.215Z,29.26
2022-08-03T06:06:19.335Z,29.37
2022-08-03T06:08:46.551Z,29.37
2022-08-03T06:11:13.856Z,29.48
2022-08-03T06:13:40.979Z,29.64
2022-08-03T06:16:08.135Z,29.85
2022-08-03T06:18:36.155Z,29.98
2022-08-03T06:21:14.477Z,30.17
2022-08-03T06:23:54.642Z,30.44
2022-08-03T06:26:23.726Z,30.53
2022-08-03T06:28:52.792Z,30.66
2022-08-03T06:31:21.107Z,30.81
2022-08-03T06:34:30.808Z,31.02
2022-08-03T06:36:38.137Z,31.23
2022-08-03T06:39:05.766Z,31.13
2022-08-03T06:41:38.004Z,30.94
2022-08-03T06:44:11.446Z,31.19
2022-08-03T06:46:38.486Z,31.18
2022-08-03T06:49:05.538Z,31.49
2022-08-03T06:52:03.490Z,31.66
2022-08-03T06:54:19.718Z,31.82
2022-08-03T06:56:46.676Z,31.81
2022-08-03T07:00:06.346Z,32.16
2022-08-03T07:02:00.657Z,32.09
2022-08-03T07:04:27.567Z,32.05
2022-08-03T07:06:55.434Z,32.20
2022-08-03T07:09:22.685Z,31.98
2022-08-03T07:11:49.775Z,32.31
2022-08-03T07:14:16.784Z,32.40
2022-08-03T07:16:43.935Z,32.30
2022-08-03T07:19:11.309Z,32.56
2022-08-03T07:21:38.211Z,32.44
2022-08-03T07:24:05.632Z,32.37
2022-08-03T07:26:32.615Z,32.56
2022-08-03T07:29:01.867Z,32.63
2022-08-03T07:31:28.990Z,32.94
2022-08-03T07:34:01.683Z,32.91
2022-08-03T07:36:28.767Z,32.98
2022-08-03T07:38:55.715Z,32.89
2022-08-03T07:41:22.640Z,32.85
2022-08-03T07:43:49.698Z,33.25
2022-08-03T07:46:16.853Z,33.30
2022-08-03T07:48:46.661Z,33.34
2022-08-03T07:51:13.553Z,33.43
2022-08-03T07:53:47.123Z,33.58
2022-08-03T07:56:14.473Z,33.71
2022-08-03T07:58:41.635Z,34.05
2022-08-03T08:01:08.937Z,34.14
2022-08-03T08:03:52.175Z,33.95
2022-08-03T08:06:21.258Z,33.69
2022-08-03T08:08:48.453Z,33.90
2022-08-03T08:11:15.875Z,34.02
2022-08-03T08:13:42.941Z,33.99
2022-08-03T08:16:10.025Z,33.81
2022-08-03T08:18:37.183Z,33.79
2022-08-03T08:21:04.461Z,33.89
2022-08-03T08:23:42.746Z,34.04
2022-08-03T08:26:11.853Z,33.72
2022-08-03T08:28:39.354Z,33.95
2022-08-03T08:31:07.090Z,34.04
2022-08-03T08:34:03.256Z,33.60
2022-08-03T08:36:22.512Z,33.91
2022-08-03T08:38:49.777Z,33.78
2022-08-03T08:41:17.479Z,34.04
2022-08-03T08:43:44.572Z,34.28
2022-08-03T08:46:23.092Z,34.34
2022-08-03T08:48:51.940Z,34.52
2022-08-03T08:51:21.380Z,34.52
2022-08-03T08:53:52.743Z,34.72
2022-08-03T08:56:27.286Z,34.89
2022-08-03T08:58:59.328Z,35.08
2022-08-03T09:01:29.599Z,34.83
2022-08-03T09:03:56.725Z,34.88
2022-08-03T09:06:24.223Z,34.48
2022-08-03T09:08:51.554Z,34.56
2022-08-03T09:11:54.410Z,34.52
2022-08-03T09:14:39.241Z,34.72
2022-08-03T09:17:03.316Z,34.92
2022-08-03T09:19:32.061Z,34.74
2022-08-03T09:22:18.684Z,34.32
2022-08-03T09:25:21.655Z,34.85
2022-08-03T09:27:44.591Z,34.56
2022-08-03T09:30:33.470Z,34.82
2022-08-03T09:33:08.302Z,34.89
2022-08-03T09:35:57.356Z,34.77
2022-08-03T09:38:28.291Z,35.14
2022-08-03T09:40:59.900Z,34.82
2022-08-03T09:43:28.605Z,35.34
2022-08-03T09:46:05.623Z,35.31
2022-08-03T09:48:35.229Z,35.28
2022-08-03T09:51:12.847Z,35.64
2022-08-03T09:53:57.077Z,35.41
2022-08-03T09:56:47.633Z,35.22
2022-08-03T09:59:24.610Z,35.13
2022-08-03T10:01:53.783Z,35.48
2022-08-03T10:04:22.351Z,35.48
2022-08-03T10:07:09.840Z,35.12
2022-08-03T10:09:38.052Z,35.54
2022-08-03T10:12:09.878Z,35.66
2022-08-03T10:14:42.127Z,35.55
2022-08-03T10:17:10.118Z,35.64
2022-08-03T10:19:38.189Z,35.65
2022-08-03T10:22:12.812Z,35.64
2022-08-03T10:24:42.242Z,35.60
2022-08-03T10:27:11.921Z,35.62
2022-08-03T10:29:40.132Z,35.59
2022-08-03T10:32:16.582Z,35.59
2022-08-03T10:34:45.821Z,35.61
2022-08-03T10:37:16.440Z,35.66
2022-08-03T10:39:53.717Z,35.70
2022-08-03T10:42:26.378Z,35.50
2022-08-03T10:45:05.378Z,35.74
2022-08-03T10:47:33.388Z,35.86
2022-08-03T10:50:01.299Z,35.70
2022-08-03T10:52:33.895Z,35.45
2022-08-03T10:55:54.071Z,35.62
2022-08-03T10:58:57.739Z,35.81
2022-08-03T11:02:00.835Z,35.94
2022-08-03T11:04:30.352Z,35.81
2022-08-03T11:07:29.821Z,34.39
2022-08-03T11:09:57.271Z,34.71
2022-08-03T11:12:31.101Z,34.90
2022-08-03T11:15:07.800Z,35.07
2022-08-03T11:17:46.338Z,35.00
2022-08-03T11:20:59.840Z,35.27
2022-08-03T11:24:02.455Z,35.21
2022-08-03T11:26:34.388Z,35.18
2022-08-03T11:29:33.161Z,35.01
2022-08-03T11:32:03.491Z,34.74
2022-08-03T11:34:30.811Z,34.84
2022-08-03T11:37:34.661Z,35.14
2022-08-03T11:40:06.399Z,34.97
2022-08-03T11:42:36.761Z,34.80
2022-08-03T11:45:09.281Z,34.73
2022-08-03T11:47:51.161Z,34.80
2022-08-03T11:50:20.410Z,34.93
2022-08-03T11:52:51.350Z,34.86
2022-08-03T11:55:22.367Z,34.97
2022-08-03T11:59:13.094Z,34.93
2022-08-03T12:00:37.280Z,34.95
2022-08-03T12:03:08.108Z,34.86
2022-08-03T12:05:41.181Z,34.77
2022-08-03T12:08:10.011Z,34.81
2022-08-03T12:10:39.121Z,34.96
2022-08-03T12:14:44.066Z,34.86
2022-08-03T12:16:01.879Z,35.04
2022-08-03T12:18:28.859Z,35.02
2022-08-03T12:21:11.279Z,35.09
2022-08-03T12:23:39.259Z,34.85
2022-08-03T12:26:10.653Z,35.00
2022-08-03T12:28:49.795Z,34.74
2022-08-03T12:31:17.465Z,34.52
2022-08-03T12:34:03.316Z,34.47
2022-08-03T12:36:32.465Z,34.66
2022-08-03T12:39:09.676Z,34.48
2022-08-03T12:41:41.036Z,34.55
2022-08-03T12:44:09.996Z,34.72
2022-08-03T12:46:47.584Z,34.83
2022-08-03T12:49:17.573Z,34.76
2022-08-03T12:51:44.497Z,34.82
2022-08-03T12:54:25.246Z,34.80
2022-08-03T12:57:06.961Z,34.94
2022-08-03T12:59:45.164Z,34.85
2022-08-03T13:02:23.703Z,34.82
2022-08-03T13:04:52.518Z,34.63
2022-08-03T13:07:21.193Z,34.63
2022-08-03T13:09:53.616Z,34.60
2022-08-03T13:12:29.204Z,34.76
2022-08-03T13:14:58.875Z,34.88
2022-08-03T13:17:27.235Z,34.55
2022-08-03T13:19:55.065Z,34.63
2022-08-03T13:22:23.556Z,34.71
2022-08-03T13:24:53.357Z,34.77
2022-08-03T13:28:00.949Z,34.68
2022-08-03T13:30:09.119Z,34.55
2022-08-03T13:32:36.505Z,34.41
2022-08-03T13:35:04.255Z,34.15
2022-08-03T13:37:32.634Z,34.13
2022-08-03T13:40:02.581Z,34.22
2022-08-03T13:42:32.859Z,34.11
2022-08-03T13:45:01.070Z,34.28
2022-08-03T13:47:28.698Z,34.28
2022-08-03T13:50:01.170Z,34.07
2022-08-03T13:52:34.745Z,34.25
2022-08-03T13:55:04.404Z,34.26
2022-08-03T13:58:03.732Z,34.12
2022-08-03T14:00:26.596Z,34.04
2022-08-03T14:03:02.881Z,34.08
2022-08-03T14:05:32.426Z,34.01
2022-08-03T14:08:04.904Z,34.10
2022-08-03T14:10:37.485Z,33.90
2022-08-03T14:13:05.626Z,34.12
2022-08-03T14:15:37.657Z,34.13
2022-08-03T14:18:07.331Z,34.10
2022-08-03T14:20:49.968Z,34.11
2022-08-03T14:23:28.194Z,34.22
2022-08-03T14:25:55.236Z,34.19
2022-08-03T14:28:23.579Z,34.12
2022-08-03T14:30:56.178Z,33.90
2022-08-03T14:33:25.228Z,33.80
2022-08-03T14:35:52.839Z,34.00
2022-08-03T14:38:20.565Z,34.07
2022-08-03T14:40:49.558Z,33.99
2022-08-03T14:43:23.375Z,33.83
2022-08-03T14:45:54.455Z,33.70
2022-08-03T14:50:24.524Z,33.58
2022-08-03T14:51:13.001Z,33.50
2022-08-03T14:53:42.835Z,33.76
2022-08-03T14:56:11.096Z,33.70
2022-08-03T14:58:39.440Z,33.73
2022-08-03T15:02:01.823Z,33.35
2022-08-03T15:04:05.795Z,33.66
2022-08-03T15:06:34.525Z,33.51
2022-08-03T15:11:49.515Z,33.27
2022-08-03T15:14:28.346Z,33.19
2022-08-03T15:17:01.149Z,33.13
2022-08-03T15:20:01.177Z,33.01
2022-08-03T15:22:19.051Z,33.03
2022-08-03T15:24:48.106Z,33.01
2022-08-03T15:27:17.818Z,33.06
2022-08-03T15:30:08.876Z,33.19
2022-08-03T15:32:32.077Z,32.93
2022-08-03T15:34:59.033Z,33.06
2022-08-03T15:37:26.160Z,32.91
2022-08-03T15:39:58.869Z,32.78
2022-08-03T15:42:29.343Z,32.85
2022-08-03T15:44:58.642Z,32.70
2022-08-03T15:47:25.980Z,32.66
2022-08-03T15:49:54.213Z,32.49
2022-08-03T15:52:21.505Z,32.34
2022-08-03T15:54:48.512Z,32.31
2022-08-03T15:57:15.672Z,32.18
2022-08-03T15:59:42.802Z,32.24
2022-08-03T16:02:10.503Z,32.36
2022-08-03T16:04:37.582Z,32.13
2022-08-03T16:07:05.122Z,32.21
2022-08-03T16:09:43.180Z,32.20
2022-08-03T16:12:15.894Z,32.02
2022-08-03T16:14:52.293Z,32.17
2022-08-03T16:17:20.278Z,32.11
2022-08-03T16:19:47.424Z,32.06
2022-08-03T16:22:14.672Z,32.03
2022-08-03T16:24:42.062Z,32.02
2022-08-03T16:27:17.697Z,31.91
2022-08-03T16:29:59.182Z,31.72
2022-08-03T16:32:26.352Z,31.70
2022-08-03T16:34:54.222Z,31.78
2022-08-03T16:40:17.676Z,31.59
2022-08-03T16:42:47.425Z,31.63
2022-08-03T16:45:14.647Z,31.57
2022-08-03T16:47:41.834Z,31.54
2022-08-03T16:50:17.223Z,31.37
2022-08-03T16:52:47.094Z,31.24
2022-08-03T16:55:16.096Z,31.29
2022-08-03T16:58:04.111Z,31.14
2022-08-03T17:00:41.517Z,31.12
2022-08-03T17:03:25.535Z,31.04
2022-08-03T17:05:53.196Z,30.86
2022-08-03T17:08:27.463Z,30.77
2022-08-03T17:10:56.287Z,30.83
2022-08-03T17:13:27.828Z,30.65
2022-08-03T17:16:10.817Z,30.51
2022-08-03T17:18:57.152Z,30.54
2022-08-03T17:21:29.441Z,30.46
2022-08-03T17:24:14.772Z,30.28
2022-08-03T17:26:49.995Z,30.29
2022-08-03T17:29:25.173Z,30.15
2022-08-03T17:31:53.349Z,30.07
2022-08-03T17:34:26.492Z,29.89
2022-08-03T17:37:27.160Z,29.85
2022-08-03T17:39:59.606Z,29.60
2022-08-03T17:42:30.242Z,29.42
2022-08-03T17:45:02.162Z,29.29
2022-08-03T17:47:42.421Z,29.21
2022-08-03T17:50:25.050Z,29.18
2022-08-03T17:53:06.745Z,28.93
2022-08-03T17:55:56.043Z,28.85
2022-08-03T17:58:55.832Z,28.76
2022-08-03T18:02:00.275Z,28.59
2022-08-03T18:04:40.627Z,28.43
2022-08-03T18:07:13.102Z,28.45
2022-08-03T18:10:05.317Z,28.38
2022-08-03T18:12:51.895Z,28.19
2022-08-03T18:15:32.064Z,28.10
2022-08-03T18:18:10.527Z,27.89
2022-08-03T18:20:41.982Z,27.79
2022-08-03T18:23:25.230Z,27.87
2022-08-03T18:26:00.881Z,27.83
2022-08-03T18:28:31.807Z,27.66
2022-08-03T18:31:06.283Z,27.49
2022-08-03T18:34:16.705Z,27.39
2022-08-03T18:36:32.422Z,27.21
2022-08-03T18:39:03.241Z,27.06
2022-08-03T18:41:34.550Z,26.97
2022-08-03T18:44:08.323Z,26.90
2022-08-03T18:47:16.770Z,26.87
2022-08-03T18:50:20.924Z,26.78
2022-08-03T18:53:16.305Z,26.73
2022-08-03T18:56:03.553Z,26.53
2022-08-03T18:58:48.614Z,26.56
2022-08-03T19:04:32.733Z,26.51
2022-08-03T19:07:11.070Z,26.45
2022-08-03T19:09:59.726Z,26.33
2022-08-03T19:12:58.343Z,26.29
2022-08-03T19:15:41.342Z,26.30
2022-08-03T19:18:18.548Z,26.24
2022-08-03T19:20:46.700Z,26.18
2022-08-03T19:23:14.883Z,26.08
2022-08-03T19:25:42.854Z,26.17
2022-08-03T19:28:09.999Z,26.05
2022-08-03T19:30:53.248Z,26.06
2022-08-03T19:33:21.003Z,26.04
2022-08-03T19:35:55.322Z,25.93
2022-08-03T19:38:28.567Z,25.86
2022-08-03T19:41:02.976Z,25.92
2022-08-03T19:43:52.730Z,25.70
2022-08-03T19:46:31.639Z,25.76
2022-08-03T19:49:10.555Z,25.80
2022-08-03T19:52:01.163Z,25.71
2022-08-03T19:54:35.264Z,25.42
2022-08-03T19:57:03.485Z,25.31
2022-08-03T19:59:36.807Z,25.36
2022-08-03T20:02:25.638Z,25.18
2022-08-03T20:04:54.914Z,25.22
2022-08-03T20:07:23.715Z,25.11
2022-08-03T20:09:54.393Z,25.09
2022-08-03T20:12:26.616Z,25.10
2022-08-03T20:14:55.705Z,25.18
2022-08-03T20:17:23.428Z,25.18
2022-08-03T20:20:10.196Z,24.97
2022-08-03T20:22:47.506Z,24.94
2022-08-03T20:25:21.103Z,24.94
2022-08-03T20:28:07.901Z,24.68
2022-08-03T20:30:44.206Z,24.71
2022-08-03T20:33:11.594Z,24.69
2022-08-03T20:35:45.990Z,24.65
2022-08-03T20:38:18.470Z,24.67
2022-08-03T20:41:09.135Z,24.47
2022-08-03T20:43:36.214Z,24.35
2022-08-03T20:46:31.889Z,24.19
2022-08-03T20:48:51.474Z,24.15
2022-08-03T20:51:50.316Z,24.27
2022-08-03T20:54:23.061Z,24.21
2022-08-03T20:57:04.370Z,24.26
2022-08-03T20:59:50.407Z,24.29
2022-08-03T21:02:28.798Z,24.39
2022-08-03T21:05:03.726Z,24.37
2022-08-03T21:08:05.746Z,24.36
2022-08-03T21:10:30.604Z,24.43
2022-08-03T21:13:10.495Z,26.62
2022-08-03T21:16:02.934Z,24.29
2022-08-03T21:18:49.286Z,24.30
2022-08-03T21:21:18.476Z,24.27
2022-08-03T21:23:50.162Z,24.21
2022-08-03T21:26:19.814Z,24.17
2022-08-03T21:28:48.981Z,24.14
2022-08-03T21:31:24.803Z,24.11
2022-08-03T21:33:59.868Z,24.03
2022-08-03T21:36:29.335Z,23.95
2022-08-03T21:38:57.936Z,23.96
2022-08-03T21:41:30.841Z,23.92
2022-08-03T21:43:58.714Z,23.92
2022-08-03T21:46:29.914Z,23.91
2022-08-03T21:50:04.175Z,23.89
2022-08-03T21:51:50.685Z,23.83
2022-08-03T21:54:20.791Z,23.83
2022-08-03T21:56:48.892Z,23.79
2022-08-03T21:59:20.495Z,23.76
2022-08-03T22:01:51.353Z,23.76
2022-08-03T22:04:55.321Z,23.73
2022-08-03T22:07:09.675Z,23.69
2022-08-03T22:09:37.209Z,23.65
2022-08-03T22:12:04.670Z,23.69
2022-08-03T22:14:34.493Z,23.71
2022-08-03T22:17:03.560Z,23.63
2022-08-03T22:19:34.277Z,23.63
2022-08-03T22:22:06.203Z,23.57
2022-08-03T22:24:36.077Z,23.57
2022-08-03T22:27:22.713Z,23.53
2022-08-03T22:29:51.894Z,23.50
2022-08-03T22:32:20.074Z,23.57
2022-08-03T22:34:49.626Z,23.53
2022-08-03T22:37:19.000Z,23.38
2022-08-03T22:39:46.649Z,23.37
2022-08-03T22:42:14.018Z,23.35
2022-08-03T22:44:41.204Z,23.33
2022-08-03T22:47:09.874Z,23.24
2022-08-03T22:49:38.044Z,23.15
2022-08-03T22:52:05.973Z,23.16
2022-08-03T22:54:33.924Z,22.90
2022-08-03T22:57:01.287Z,23.03
2022-08-03T22:59:39.225Z,22.88
2022-08-03T23:02:21.085Z,22.88
2022-08-03T23:04:56.987Z,22.98
2022-08-03T23:07:30.433Z,22.96
2022-08-03T23:10:02.964Z,22.95
2022-08-03T23:12:34.525Z,22.96
2022-08-03T23:15:04.545Z,22.90
2022-08-03T23:17:32.933Z,22.88
2022-08-03T23:20:06.856Z,22.91
2022-08-03T23:22:42.919Z,22.89
2022-08-03T23:25:10.984Z,22.84
2022-08-03T23:27:42.830Z,22.88
2022-08-03T23:30:11.370Z,22.84
2022-08-03T23:32:42.905Z,22.84
2022-08-03T23:36:27.630Z,22.84
2022-08-03T23:38:22.980Z,22.85
2022-08-03T23:40:51.469Z,22.84
2022-08-03T23:43:50.909Z,22.79
2022-08-03T23:46:07.897Z,22.70
2022-08-03T23:48:35.154Z,22.63
2022-08-03T23:51:10.595Z,22.68
2022-08-03T23:53:57.678Z,22.67
2022-08-03T23:56:53.108Z,22.61
2022-08-03T23:59:44.166Z,22.54
